sensor_id;sensor_type;location;lat;lon;timestamp;P1;durP1;ratioP1;P2;durP2;ratioP2
74538;SDS011;66042;51.090;-115.340;2023-07-13T00:01:54;18.60;;;14.40;;
74538;SDS011;66042;51.090;-115.340;2023-07-13T00:04:23;18.30;;;14.80;;
74538;SDS011;66042;51.090;-115.340;2023-07-13T00:06:53;18.30;;;14.70;;
74538;SDS011;66042;51.090;-115.340;2023-07-13T00:09:21;18.70;;;13.40;;
74538;SDS011;66042;51.090;-115.340;2023-07-13T00:11:57;19.90;;;15.70;;
74538;SDS011;66042;51.090;-115.340;2023-07-13T00:14:25;19.60;;;15.70;;
74538;SDS011;66042;51.090;-115.340;2023-07-13T00:16:54;20.20;;;15.50;;
74538;SDS011;66042;51.090;-115.340;2023-07-13T00:19:21;20.00;;;15.30;;
74538;SDS011;66042;51.090;-115.340;2023-07-13T00:21:49;20.30;;;15.30;;
74538;SDS011;66042;51.090;-115.340;2023-07-13T00:24:17;20.00;;;15.40;;
74538;SDS011;66042;51.090;-115.340;2023-07-13T00:26:49;17.80;;;14.30;;
74538;SDS011;66042;51.090;-115.340;2023-07-13T00:29:17;18.90;;;14.10;;
74538;SDS011;66042;51.090;-115.340;2023-07-13T00:31:43;18.60;;;13.80;;
74538;SDS011;66042;51.090;-115.340;2023-07-13T00:34:11;18.20;;;13.00;;
74538;SDS011;66042;51.090;-115.340;2023-07-13T00:36:38;16.90;;;12.50;;
74538;SDS011;66042;51.090;-115.340;2023-07-13T00:39:05;15.90;;;11.30;;
74538;SDS011;66042;51.090;-115.340;2023-07-13T00:41:32;16.40;;;11.50;;
74538;SDS011;66042;51.090;-115.340;2023-07-13T00:43:59;15.70;;;10.50;;
74538;SDS011;66042;51.090;-115.340;2023-07-13T00:46:32;17.80;;;11.70;;
74538;SDS011;66042;51.090;-115.340;2023-07-13T00:49:06;15.10;;;10.50;;
74538;SDS011;66042;51.090;-115.340;2023-07-13T00:51:52;15.60;;;10.80;;
74538;SDS011;66042;51.090;-115.340;2023-07-13T00:54:45;15.50;;;10.90;;
74538;SDS011;66042;51.090;-115.340;2023-07-13T00:57:16;13.40;;;10.10;;
74538;SDS011;66042;51.090;-115.340;2023-07-13T00:59:49;16.80;;;10.60;;
74538;SDS011;66042;51.090;-115.340;2023-07-13T01:02:20;17.30;;;10.80;;
74538;SDS011;66042;51.090;-115.340;2023-07-13T01:04:48;14.20;;;9.80;;
74538;SDS011;66042;51.090;-115.340;2023-07-13T01:07:15;17.40;;;10.30;;
74538;SDS011;66042;51.090;-115.340;2023-07-13T01:09:45;12.80;;;9.30;;
74538;SDS011;66042;51.090;-115.340;2023-07-13T01:12:12;14.80;;;10.30;;
74538;SDS011;66042;51.090;-115.340;2023-07-13T01:14:39;14.50;;;9.90;;
74538;SDS011;66042;51.090;-115.340;2023-07-13T01:17:10;13.00;;;9.60;;
74538;SDS011;66042;51.090;-115.340;2023-07-13T01:19:42;14.80;;;10.60;;
74538;SDS011;66042;51.090;-115.340;2023-07-13T01:22:13;13.60;;;9.20;;
74538;SDS011;66042;51.090;-115.340;2023-07-13T01:24:44;14.00;;;9.40;;
74538;SDS011;66042;51.090;-115.340;2023-07-13T01:27:14;13.00;;;10.30;;
74538;SDS011;66042;51.090;-115.340;2023-07-13T01:29:44;14.10;;;9.20;;
74538;SDS011;66042;51.090;-115.340;2023-07-13T01:32:16;12.60;;;9.90;;
74538;SDS011;66042;51.090;-115.340;2023-07-13T01:34:53;14.30;;;9.00;;
74538;SDS011;66042;51.090;-115.340;2023-07-13T01:37:24;13.10;;;9.30;;
74538;SDS011;66042;51.090;-115.340;2023-07-13T01:39:53;11.70;;;8.40;;
74538;SDS011;66042;51.090;-115.340;2023-07-13T01:42:20;13.00;;;8.90;;
74538;SDS011;66042;51.090;-115.340;2023-07-13T01:44:47;13.90;;;9.10;;
74538;SDS011;66042;51.090;-115.340;2023-07-13T01:47:14;12.80;;;9.30;;
74538;SDS011;66042;51.090;-115.340;2023-07-13T01:49:41;11.80;;;9.10;;
74538;SDS011;66042;51.090;-115.340;2023-07-13T01:52:08;11.90;;;9.30;;
74538;SDS011;66042;51.090;-115.340;2023-07-13T01:54:35;14.30;;;9.80;;
74538;SDS011;66042;51.090;-115.340;2023-07-13T01:57:02;12.90;;;8.90;;
74538;SDS011;66042;51.090;-115.340;2023-07-13T01:59:29;14.00;;;9.50;;
74538;SDS011;66042;51.090;-115.340;2023-07-13T02:01:58;13.00;;;9.60;;
74538;SDS011;66042;51.090;-115.340;2023-07-13T02:04:26;16.10;;;10.30;;
74538;SDS011;66042;51.090;-115.340;2023-07-13T02:06:52;15.20;;;9.90;;
74538;SDS011;66042;51.090;-115.340;2023-07-13T02:09:21;14.20;;;9.20;;
74538;SDS011;66042;51.090;-115.340;2023-07-13T02:11:48;14.50;;;9.80;;
74538;SDS011;66042;51.090;-115.340;2023-07-13T02:14:16;14.50;;;9.60;;
74538;SDS011;66042;51.090;-115.340;2023-07-13T02:16:43;14.40;;;10.40;;
74538;SDS011;66042;51.090;-115.340;2023-07-13T02:19:10;16.20;;;9.80;;
74538;SDS011;66042;51.090;-115.340;2023-07-13T02:21:37;14.10;;;10.10;;
74538;SDS011;66042;51.090;-115.340;2023-07-13T02:24:05;15.40;;;9.80;;
74538;SDS011;66042;51.090;-115.340;2023-07-13T02:26:32;14.10;;;11.10;;
74538;SDS011;66042;51.090;-115.340;2023-07-13T02:28:58;14.10;;;9.70;;
74538;SDS011;66042;51.090;-115.340;2023-07-13T02:31:25;13.70;;;9.60;;
74538;SDS011;66042;51.090;-115.340;2023-07-13T02:33:52;15.50;;;9.80;;
74538;SDS011;66042;51.090;-115.340;2023-07-13T02:36:19;15.40;;;10.30;;
74538;SDS011;66042;51.090;-115.340;2023-07-13T02:38:46;15.80;;;10.10;;
74538;SDS011;66042;51.090;-115.340;2023-07-13T02:41:15;15.60;;;10.20;;
74538;SDS011;66042;51.090;-115.340;2023-07-13T02:43:43;14.70;;;9.50;;
74538;SDS011;66042;51.090;-115.340;2023-07-13T02:46:10;16.80;;;10.70;;
74538;SDS011;66042;51.090;-115.340;2023-07-13T02:48:38;14.70;;;10.40;;
74538;SDS011;66042;51.090;-115.340;2023-07-13T02:51:06;13.10;;;9.80;;
74538;SDS011;66042;51.090;-115.340;2023-07-13T02:53:34;15.40;;;10.80;;
74538;SDS011;66042;51.090;-115.340;2023-07-13T02:56:02;18.40;;;10.20;;
74538;SDS011;66042;51.090;-115.340;2023-07-13T02:58:30;14.30;;;9.40;;
74538;SDS011;66042;51.090;-115.340;2023-07-13T03:00:57;15.20;;;10.20;;
74538;SDS011;66042;51.090;-115.340;2023-07-13T03:03:24;15.70;;;10.20;;
74538;SDS011;66042;51.090;-115.340;2023-07-13T03:05:59;16.70;;;11.20;;
74538;SDS011;66042;51.090;-115.340;2023-07-13T03:08:28;14.10;;;10.60;;
74538;SDS011;66042;51.090;-115.340;2023-07-13T03:11:05;14.20;;;10.30;;
74538;SDS011;66042;51.090;-115.340;2023-07-13T03:13:34;16.10;;;9.80;;
74538;SDS011;66042;51.090;-115.340;2023-07-13T03:16:01;13.70;;;10.40;;
74538;SDS011;66042;51.090;-115.340;2023-07-13T03:18:29;14.70;;;10.40;;
74538;SDS011;66042;51.090;-115.340;2023-07-13T03:20:56;16.20;;;10.60;;
74538;SDS011;66042;51.090;-115.340;2023-07-13T03:23:24;16.40;;;10.00;;
74538;SDS011;66042;51.090;-115.340;2023-07-13T03:26:02;13.40;;;10.30;;
74538;SDS011;66042;51.090;-115.340;2023-07-13T03:28:29;15.30;;;10.50;;
74538;SDS011;66042;51.090;-115.340;2023-07-13T03:31:01;14.40;;;10.30;;
74538;SDS011;66042;51.090;-115.340;2023-07-13T03:33:27;16.20;;;10.60;;
74538;SDS011;66042;51.090;-115.340;2023-07-13T03:35:54;16.10;;;10.10;;
74538;SDS011;66042;51.090;-115.340;2023-07-13T03:38:21;13.20;;;9.10;;
74538;SDS011;66042;51.090;-115.340;2023-07-13T03:40:48;13.90;;;10.20;;
74538;SDS011;66042;51.090;-115.340;2023-07-13T03:43:15;13.40;;;9.50;;
74538;SDS011;66042;51.090;-115.340;2023-07-13T03:45:42;13.20;;;8.80;;
74538;SDS011;66042;51.090;-115.340;2023-07-13T03:48:09;15.40;;;9.00;;
74538;SDS011;66042;51.090;-115.340;2023-07-13T03:50:36;14.10;;;9.20;;
74538;SDS011;66042;51.090;-115.340;2023-07-13T03:53:04;12.00;;;8.20;;
74538;SDS011;66042;51.090;-115.340;2023-07-13T03:55:31;11.10;;;8.30;;
74538;SDS011;66042;51.090;-115.340;2023-07-13T04:00:55;11.60;;;7.80;;
74538;SDS011;66042;51.090;-115.340;2023-07-13T04:03:25;12.20;;;8.40;;
74538;SDS011;66042;51.090;-115.340;2023-07-13T04:05:55;13.70;;;8.20;;
74538;SDS011;66042;51.090;-115.340;2023-07-13T04:08:30;11.20;;;7.90;;
74538;SDS011;66042;51.090;-115.340;2023-07-13T04:11:00;13.20;;;8.70;;
74538;SDS011;66042;51.090;-115.340;2023-07-13T04:13:27;12.90;;;8.70;;
74538;SDS011;66042;51.090;-115.340;2023-07-13T04:15:55;11.20;;;8.20;;
74538;SDS011;66042;51.090;-115.340;2023-07-13T04:18:22;11.40;;;8.40;;
74538;SDS011;66042;51.090;-115.340;2023-07-13T04:20:53;11.40;;;8.70;;
74538;SDS011;66042;51.090;-115.340;2023-07-13T04:23:20;13.50;;;8.70;;
74538;SDS011;66042;51.090;-115.340;2023-07-13T04:25:48;11.10;;;8.30;;
74538;SDS011;66042;51.090;-115.340;2023-07-13T04:28:20;13.20;;;8.40;;
74538;SDS011;66042;51.090;-115.340;2023-07-13T04:30:49;12.10;;;7.60;;
74538;SDS011;66042;51.090;-115.340;2023-07-13T04:33:17;14.30;;;9.10;;
74538;SDS011;66042;51.090;-115.340;2023-07-13T04:35:49;11.10;;;8.20;;
74538;SDS011;66042;51.090;-115.340;2023-07-13T04:38:29;13.50;;;7.80;;
74538;SDS011;66042;51.090;-115.340;2023-07-13T04:41:01;15.20;;;8.70;;
74538;SDS011;66042;51.090;-115.340;2023-07-13T04:43:32;12.20;;;8.00;;
74538;SDS011;66042;51.090;-115.340;2023-07-13T04:46:11;12.00;;;8.20;;
74538;SDS011;66042;51.090;-115.340;2023-07-13T04:48:40;15.20;;;8.50;;
74538;SDS011;66042;51.090;-115.340;2023-07-13T04:51:07;11.90;;;7.50;;
74538;SDS011;66042;51.090;-115.340;2023-07-13T04:53:34;12.30;;;7.90;;
74538;SDS011;66042;51.090;-115.340;2023-07-13T04:56:06;11.90;;;8.00;;
74538;SDS011;66042;51.090;-115.340;2023-07-13T04:58:33;11.70;;;7.90;;
74538;SDS011;66042;51.090;-115.340;2023-07-13T05:01:05;11.50;;;7.90;;
74538;SDS011;66042;51.090;-115.340;2023-07-13T05:03:34;11.80;;;7.20;;
74538;SDS011;66042;51.090;-115.340;2023-07-13T05:06:04;13.50;;;8.30;;
74538;SDS011;66042;51.090;-115.340;2023-07-13T05:08:36;13.00;;;8.20;;
74538;SDS011;66042;51.090;-115.340;2023-07-13T05:11:05;11.90;;;8.40;;
74538;SDS011;66042;51.090;-115.340;2023-07-13T05:13:35;13.30;;;8.30;;
74538;SDS011;66042;51.090;-115.340;2023-07-13T05:16:06;12.10;;;8.60;;
74538;SDS011;66042;51.090;-115.340;2023-07-13T05:18:33;13.40;;;8.10;;
74538;SDS011;66042;51.090;-115.340;2023-07-13T05:21:04;12.60;;;9.30;;
74538;SDS011;66042;51.090;-115.340;2023-07-13T05:23:34;13.00;;;8.90;;
74538;SDS011;66042;51.090;-115.340;2023-07-13T05:26:03;11.90;;;9.20;;
74538;SDS011;66042;51.090;-115.340;2023-07-13T05:28:31;13.00;;;8.70;;
74538;SDS011;66042;51.090;-115.340;2023-07-13T05:30:58;13.20;;;8.60;;
74538;SDS011;66042;51.090;-115.340;2023-07-13T05:33:26;15.30;;;8.90;;
74538;SDS011;66042;51.090;-115.340;2023-07-13T05:35:53;15.40;;;9.80;;
74538;SDS011;66042;51.090;-115.340;2023-07-13T05:38:20;13.80;;;9.80;;
74538;SDS011;66042;51.090;-115.340;2023-07-13T05:40:47;15.60;;;10.60;;
74538;SDS011;66042;51.090;-115.340;2023-07-13T05:43:15;14.70;;;10.10;;
74538;SDS011;66042;51.090;-115.340;2023-07-13T05:45:43;16.10;;;10.90;;
74538;SDS011;66042;51.090;-115.340;2023-07-13T05:48:12;18.20;;;10.60;;
74538;SDS011;66042;51.090;-115.340;2023-07-13T05:50:39;14.90;;;10.60;;
74538;SDS011;66042;51.090;-115.340;2023-07-13T05:53:06;16.00;;;10.10;;
74538;SDS011;66042;51.090;-115.340;2023-07-13T05:55:33;15.70;;;10.50;;
74538;SDS011;66042;51.090;-115.340;2023-07-13T05:58:01;15.90;;;10.50;;
74538;SDS011;66042;51.090;-115.340;2023-07-13T06:00:28;17.20;;;9.70;;
74538;SDS011;66042;51.090;-115.340;2023-07-13T06:02:56;17.70;;;11.20;;
74538;SDS011;66042;51.090;-115.340;2023-07-13T06:05:24;14.20;;;10.10;;
74538;SDS011;66042;51.090;-115.340;2023-07-13T06:07:51;17.10;;;11.00;;
74538;SDS011;66042;51.090;-115.340;2023-07-13T06:10:18;15.40;;;9.90;;
74538;SDS011;66042;51.090;-115.340;2023-07-13T06:12:45;14.60;;;9.80;;
74538;SDS011;66042;51.090;-115.340;2023-07-13T06:15:12;15.70;;;9.90;;
74538;SDS011;66042;51.090;-115.340;2023-07-13T06:17:39;14.50;;;9.10;;
74538;SDS011;66042;51.090;-115.340;2023-07-13T06:20:07;16.10;;;10.60;;
74538;SDS011;66042;51.090;-115.340;2023-07-13T06:22:34;15.60;;;10.40;;
74538;SDS011;66042;51.090;-115.340;2023-07-13T06:25:02;22.30;;;15.00;;
74538;SDS011;66042;51.090;-115.340;2023-07-13T06:27:29;26.30;;;17.20;;
74538;SDS011;66042;51.090;-115.340;2023-07-13T06:29:55;24.90;;;16.70;;
74538;SDS011;66042;51.090;-115.340;2023-07-13T06:32:22;29.10;;;18.50;;
74538;SDS011;66042;51.090;-115.340;2023-07-13T06:34:49;32.80;;;20.50;;
74538;SDS011;66042;51.090;-115.340;2023-07-13T06:37:18;31.80;;;20.80;;
74538;SDS011;66042;51.090;-115.340;2023-07-13T06:39:45;38.90;;;24.70;;
74538;SDS011;66042;51.090;-115.340;2023-07-13T06:42:12;41.10;;;26.00;;
74538;SDS011;66042;51.090;-115.340;2023-07-13T06:44:39;45.80;;;28.10;;
74538;SDS011;66042;51.090;-115.340;2023-07-13T06:47:06;45.90;;;28.10;;
74538;SDS011;66042;51.090;-115.340;2023-07-13T06:49:33;48.90;;;28.80;;
74538;SDS011;66042;51.090;-115.340;2023-07-13T06:52:00;48.00;;;29.90;;
74538;SDS011;66042;51.090;-115.340;2023-07-13T06:54:28;52.60;;;31.40;;
74538;SDS011;66042;51.090;-115.340;2023-07-13T06:56:55;47.80;;;29.20;;
74538;SDS011;66042;51.090;-115.340;2023-07-13T06:59:22;49.30;;;30.20;;
74538;SDS011;66042;51.090;-115.340;2023-07-13T07:01:49;58.60;;;35.10;;
74538;SDS011;66042;51.090;-115.340;2023-07-13T07:04:16;58.60;;;34.90;;
74538;SDS011;66042;51.090;-115.340;2023-07-13T07:06:43;64.50;;;35.40;;
74538;SDS011;66042;51.090;-115.340;2023-07-13T07:09:11;63.00;;;36.90;;
74538;SDS011;66042;51.090;-115.340;2023-07-13T07:11:39;56.00;;;34.00;;
74538;SDS011;66042;51.090;-115.340;2023-07-13T07:14:08;56.70;;;33.30;;
74538;SDS011;66042;51.090;-115.340;2023-07-13T07:16:35;65.80;;;37.70;;
74538;SDS011;66042;51.090;-115.340;2023-07-13T07:19:02;65.40;;;39.30;;
74538;SDS011;66042;51.090;-115.340;2023-07-13T07:21:30;62.00;;;36.40;;
74538;SDS011;66042;51.090;-115.340;2023-07-13T07:23:57;64.30;;;37.70;;
74538;SDS011;66042;51.090;-115.340;2023-07-13T07:26:26;64.90;;;37.40;;
74538;SDS011;66042;51.090;-115.340;2023-07-13T07:28:53;67.50;;;40.30;;
74538;SDS011;66042;51.090;-115.340;2023-07-13T07:31:19;62.20;;;37.10;;
74538;SDS011;66042;51.090;-115.340;2023-07-13T07:33:47;67.10;;;38.60;;
74538;SDS011;66042;51.090;-115.340;2023-07-13T07:36:16;63.90;;;37.10;;
74538;SDS011;66042;51.090;-115.340;2023-07-13T07:38:44;61.60;;;36.10;;
74538;SDS011;66042;51.090;-115.340;2023-07-13T07:41:12;67.70;;;39.00;;
74538;SDS011;66042;51.090;-115.340;2023-07-13T07:43:40;66.30;;;39.30;;
74538;SDS011;66042;51.090;-115.340;2023-07-13T07:46:06;69.00;;;40.30;;
74538;SDS011;66042;51.090;-115.340;2023-07-13T07:48:34;69.70;;;40.40;;
74538;SDS011;66042;51.090;-115.340;2023-07-13T07:51:01;64.90;;;37.20;;
74538;SDS011;66042;51.090;-115.340;2023-07-13T07:53:28;67.70;;;39.50;;
74538;SDS011;66042;51.090;-115.340;2023-07-13T07:55:55;68.50;;;39.40;;
74538;SDS011;66042;51.090;-115.340;2023-07-13T07:58:22;69.00;;;40.40;;
74538;SDS011;66042;51.090;-115.340;2023-07-13T08:00:49;72.90;;;41.20;;
74538;SDS011;66042;51.090;-115.340;2023-07-13T08:03:16;73.40;;;42.30;;
74538;SDS011;66042;51.090;-115.340;2023-07-13T08:05:43;74.30;;;42.40;;
74538;SDS011;66042;51.090;-115.340;2023-07-13T08:08:09;76.80;;;43.30;;
74538;SDS011;66042;51.090;-115.340;2023-07-13T08:10:36;77.20;;;43.20;;
74538;SDS011;66042;51.090;-115.340;2023-07-13T08:13:03;77.40;;;43.60;;
74538;SDS011;66042;51.090;-115.340;2023-07-13T08:15:30;76.20;;;44.80;;
74538;SDS011;66042;51.090;-115.340;2023-07-13T08:17:57;78.00;;;44.40;;
74538;SDS011;66042;51.090;-115.340;2023-07-13T08:20:25;73.80;;;43.10;;
74538;SDS011;66042;51.090;-115.340;2023-07-13T08:22:51;76.60;;;45.40;;
74538;SDS011;66042;51.090;-115.340;2023-07-13T08:25:18;74.40;;;42.70;;
74538;SDS011;66042;51.090;-115.340;2023-07-13T08:27:46;72.00;;;43.10;;
74538;SDS011;66042;51.090;-115.340;2023-07-13T08:30:13;69.10;;;42.40;;
74538;SDS011;66042;51.090;-115.340;2023-07-13T08:32:40;76.00;;;45.60;;
74538;SDS011;66042;51.090;-115.340;2023-07-13T08:35:07;76.00;;;43.60;;
74538;SDS011;66042;51.090;-115.340;2023-07-13T08:37:34;84.10;;;47.20;;
74538;SDS011;66042;51.090;-115.340;2023-07-13T08:40:02;78.60;;;44.80;;
74538;SDS011;66042;51.090;-115.340;2023-07-13T08:42:31;78.10;;;46.90;;
74538;SDS011;66042;51.090;-115.340;2023-07-13T08:45:14;75.90;;;44.10;;
74538;SDS011;66042;51.090;-115.340;2023-07-13T08:47:54;78.10;;;45.70;;
74538;SDS011;66042;51.090;-115.340;2023-07-13T08:50:32;77.60;;;45.00;;
74538;SDS011;66042;51.090;-115.340;2023-07-13T08:53:05;71.50;;;42.70;;
74538;SDS011;66042;51.090;-115.340;2023-07-13T08:55:37;74.30;;;42.90;;
74538;SDS011;66042;51.090;-115.340;2023-07-13T08:58:13;73.70;;;42.60;;
74538;SDS011;66042;51.090;-115.340;2023-07-13T09:09:59;81.90;;;46.20;;
74538;SDS011;66042;51.090;-115.340;2023-07-13T09:13:07;80.60;;;46.50;;
74538;SDS011;66042;51.090;-115.340;2023-07-13T09:15:55;84.00;;;47.80;;
74538;SDS011;66042;51.090;-115.340;2023-07-13T09:18:33;86.10;;;48.60;;
74538;SDS011;66042;51.090;-115.340;2023-07-13T09:23:53;85.60;;;49.70;;
74538;SDS011;66042;51.090;-115.340;2023-07-13T09:26:24;81.40;;;47.80;;
74538;SDS011;66042;51.090;-115.340;2023-07-13T09:29:03;81.10;;;47.50;;
74538;SDS011;66042;51.090;-115.340;2023-07-13T09:31:54;87.30;;;49.50;;
74538;SDS011;66042;51.090;-115.340;2023-07-13T09:34:26;83.50;;;48.00;;
74538;SDS011;66042;51.090;-115.340;2023-07-13T09:36:53;80.50;;;46.40;;
74538;SDS011;66042;51.090;-115.340;2023-07-13T09:39:27;81.50;;;48.10;;
74538;SDS011;66042;51.090;-115.340;2023-07-13T09:44:49;79.70;;;45.90;;
74538;SDS011;66042;51.090;-115.340;2023-07-13T09:47:21;84.40;;;47.90;;
74538;SDS011;66042;51.090;-115.340;2023-07-13T09:50:16;85.50;;;49.30;;
74538;SDS011;66042;51.090;-115.340;2023-07-13T09:52:49;85.60;;;49.20;;
74538;SDS011;66042;51.090;-115.340;2023-07-13T09:58:05;85.80;;;48.60;;
74538;SDS011;66042;51.090;-115.340;2023-07-13T10:01:15;84.10;;;47.80;;
74538;SDS011;66042;51.090;-115.340;2023-07-13T10:03:56;81.00;;;45.50;;
74538;SDS011;66042;51.090;-115.340;2023-07-13T10:06:24;81.60;;;45.60;;
74538;SDS011;66042;51.090;-115.340;2023-07-13T10:08:56;79.10;;;45.70;;
74538;SDS011;66042;51.090;-115.340;2023-07-13T10:11:28;79.60;;;46.30;;
74538;SDS011;66042;51.090;-115.340;2023-07-13T10:13:58;82.00;;;48.60;;
74538;SDS011;66042;51.090;-115.340;2023-07-13T10:16:35;80.80;;;46.80;;
74538;SDS011;66042;51.090;-115.340;2023-07-13T10:19:27;80.40;;;47.70;;
74538;SDS011;66042;51.090;-115.340;2023-07-13T10:22:24;77.50;;;44.00;;
74538;SDS011;66042;51.090;-115.340;2023-07-13T10:24:52;82.10;;;47.10;;
74538;SDS011;66042;51.090;-115.340;2023-07-13T10:27:45;83.10;;;49.10;;
74538;SDS011;66042;51.090;-115.340;2023-07-13T10:30:19;78.00;;;44.70;;
74538;SDS011;66042;51.090;-115.340;2023-07-13T10:32:59;80.80;;;45.50;;
74538;SDS011;66042;51.090;-115.340;2023-07-13T10:35:30;79.50;;;47.00;;
74538;SDS011;66042;51.090;-115.340;2023-07-13T10:41:00;83.80;;;47.60;;
74538;SDS011;66042;51.090;-115.340;2023-07-13T10:43:47;80.60;;;46.20;;
74538;SDS011;66042;51.090;-115.340;2023-07-13T10:46:19;83.60;;;47.70;;
74538;SDS011;66042;51.090;-115.340;2023-07-13T10:48:52;76.60;;;45.60;;
74538;SDS011;66042;51.090;-115.340;2023-07-13T10:51:25;75.50;;;44.90;;
74538;SDS011;66042;51.090;-115.340;2023-07-13T10:54:16;81.60;;;46.10;;
74538;SDS011;66042;51.090;-115.340;2023-07-13T10:57:06;82.60;;;47.00;;
74538;SDS011;66042;51.090;-115.340;2023-07-13T10:59:35;84.60;;;45.90;;
74538;SDS011;66042;51.090;-115.340;2023-07-13T11:04:41;79.90;;;46.40;;
74538;SDS011;66042;51.090;-115.340;2023-07-13T11:10:04;80.40;;;45.70;;
74538;SDS011;66042;51.090;-115.340;2023-07-13T11:12:54;79.50;;;45.90;;
74538;SDS011;66042;51.090;-115.340;2023-07-13T11:15:32;80.50;;;46.10;;
74538;SDS011;66042;51.090;-115.340;2023-07-13T11:18:21;73.90;;;43.70;;
74538;SDS011;66042;51.090;-115.340;2023-07-13T11:20:51;78.90;;;45.70;;
74538;SDS011;66042;51.090;-115.340;2023-07-13T11:23:28;80.50;;;46.90;;
74538;SDS011;66042;51.090;-115.340;2023-07-13T11:25:57;80.10;;;45.70;;
74538;SDS011;66042;51.090;-115.340;2023-07-13T11:28:27;78.60;;;47.00;;
74538;SDS011;66042;51.090;-115.340;2023-07-13T11:33:51;82.20;;;47.80;;
74538;SDS011;66042;51.090;-115.340;2023-07-13T11:36:23;79.90;;;47.00;;
74538;SDS011;66042;51.090;-115.340;2023-07-13T11:39:04;80.50;;;46.80;;
74538;SDS011;66042;51.090;-115.340;2023-07-13T11:41:45;79.40;;;45.60;;
74538;SDS011;66042;51.090;-115.340;2023-07-13T11:44:20;79.40;;;45.50;;
74538;SDS011;66042;51.090;-115.340;2023-07-13T11:47:08;78.70;;;44.50;;
74538;SDS011;66042;51.090;-115.340;2023-07-13T11:49:50;78.80;;;44.10;;
74538;SDS011;66042;51.090;-115.340;2023-07-13T11:52:35;74.30;;;42.50;;
74538;SDS011;66042;51.090;-115.340;2023-07-13T11:55:13;76.90;;;43.70;;
74538;SDS011;66042;51.090;-115.340;2023-07-13T11:57:56;79.10;;;44.50;;
74538;SDS011;66042;51.090;-115.340;2023-07-13T12:00:30;82.30;;;46.10;;
74538;SDS011;66042;51.090;-115.340;2023-07-13T12:03:03;78.70;;;45.00;;
74538;SDS011;66042;51.090;-115.340;2023-07-13T12:05:31;81.40;;;46.30;;
74538;SDS011;66042;51.090;-115.340;2023-07-13T12:07:59;75.30;;;44.00;;
74538;SDS011;66042;51.090;-115.340;2023-07-13T12:10:35;72.90;;;43.20;;
74538;SDS011;66042;51.090;-115.340;2023-07-13T12:13:04;81.60;;;47.20;;
74538;SDS011;66042;51.090;-115.340;2023-07-13T12:15:41;73.40;;;43.80;;
74538;SDS011;66042;51.090;-115.340;2023-07-13T12:18:20;78.10;;;44.60;;
74538;SDS011;66042;51.090;-115.340;2023-07-13T12:20:50;74.90;;;43.30;;
74538;SDS011;66042;51.090;-115.340;2023-07-13T12:23:29;77.90;;;44.80;;
74538;SDS011;66042;51.090;-115.340;2023-07-13T12:26:06;79.10;;;44.80;;
74538;SDS011;66042;51.090;-115.340;2023-07-13T12:28:37;81.20;;;46.30;;
74538;SDS011;66042;51.090;-115.340;2023-07-13T12:34:03;82.80;;;46.40;;
74538;SDS011;66042;51.090;-115.340;2023-07-13T12:37:01;82.20;;;46.50;;
74538;SDS011;66042;51.090;-115.340;2023-07-13T12:39:33;80.20;;;46.10;;
74538;SDS011;66042;51.090;-115.340;2023-07-13T12:42:18;79.30;;;45.40;;
74538;SDS011;66042;51.090;-115.340;2023-07-13T12:45:00;79.40;;;44.90;;
74538;SDS011;66042;51.090;-115.340;2023-07-13T12:47:30;82.20;;;47.90;;
74538;SDS011;66042;51.090;-115.340;2023-07-13T12:50:20;78.60;;;45.00;;
74538;SDS011;66042;51.090;-115.340;2023-07-13T12:52:54;85.20;;;48.20;;
74538;SDS011;66042;51.090;-115.340;2023-07-13T12:55:29;88.00;;;49.30;;
74538;SDS011;66042;51.090;-115.340;2023-07-13T12:58:02;87.80;;;50.30;;
74538;SDS011;66042;51.090;-115.340;2023-07-13T13:00:36;89.50;;;51.40;;
74538;SDS011;66042;51.090;-115.340;2023-07-13T13:08:49;89.70;;;49.40;;
74538;SDS011;66042;51.090;-115.340;2023-07-13T13:11:19;87.10;;;50.00;;
74538;SDS011;66042;51.090;-115.340;2023-07-13T13:13:49;88.20;;;48.80;;
74538;SDS011;66042;51.090;-115.340;2023-07-13T13:16:52;88.20;;;49.50;;
74538;SDS011;66042;51.090;-115.340;2023-07-13T13:19:25;82.90;;;48.50;;
74538;SDS011;66042;51.090;-115.340;2023-07-13T13:21:55;87.20;;;50.80;;
74538;SDS011;66042;51.090;-115.340;2023-07-13T13:24:26;84.50;;;49.30;;
74538;SDS011;66042;51.090;-115.340;2023-07-13T13:26:54;86.10;;;49.60;;
74538;SDS011;66042;51.090;-115.340;2023-07-13T13:29:25;84.50;;;49.70;;
74538;SDS011;66042;51.090;-115.340;2023-07-13T13:31:54;88.50;;;49.20;;
74538;SDS011;66042;51.090;-115.340;2023-07-13T13:34:22;82.80;;;46.80;;
74538;SDS011;66042;51.090;-115.340;2023-07-13T13:36:50;82.30;;;46.50;;
74538;SDS011;66042;51.090;-115.340;2023-07-13T13:39:23;86.60;;;47.60;;
74538;SDS011;66042;51.090;-115.340;2023-07-13T13:41:54;84.30;;;47.70;;
74538;SDS011;66042;51.090;-115.340;2023-07-13T13:44:22;86.40;;;47.80;;
74538;SDS011;66042;51.090;-115.340;2023-07-13T13:46:52;87.90;;;47.50;;
74538;SDS011;66042;51.090;-115.340;2023-07-13T13:49:24;82.20;;;45.40;;
74538;SDS011;66042;51.090;-115.340;2023-07-13T13:51:53;82.00;;;46.00;;
74538;SDS011;66042;51.090;-115.340;2023-07-13T13:54:22;84.70;;;48.90;;
74538;SDS011;66042;51.090;-115.340;2023-07-13T13:56:53;81.90;;;47.30;;
74538;SDS011;66042;51.090;-115.340;2023-07-13T13:59:20;83.20;;;48.30;;
74538;SDS011;66042;51.090;-115.340;2023-07-13T14:01:47;81.60;;;46.10;;
74538;SDS011;66042;51.090;-115.340;2023-07-13T14:04:18;81.50;;;46.30;;
74538;SDS011;66042;51.090;-115.340;2023-07-13T14:06:47;84.60;;;46.20;;
74538;SDS011;66042;51.090;-115.340;2023-07-13T14:09:17;78.10;;;45.70;;
74538;SDS011;66042;51.090;-115.340;2023-07-13T14:11:46;81.70;;;46.70;;
74538;SDS011;66042;51.090;-115.340;2023-07-13T14:14:19;82.30;;;47.00;;
74538;SDS011;66042;51.090;-115.340;2023-07-13T14:16:49;79.00;;;44.90;;
74538;SDS011;66042;51.090;-115.340;2023-07-13T14:19:21;83.90;;;45.80;;
74538;SDS011;66042;51.090;-115.340;2023-07-13T14:21:48;80.10;;;46.30;;
74538;SDS011;66042;51.090;-115.340;2023-07-13T14:24:15;80.80;;;45.00;;
74538;SDS011;66042;51.090;-115.340;2023-07-13T14:26:42;78.00;;;44.80;;
74538;SDS011;66042;51.090;-115.340;2023-07-13T14:29:18;77.90;;;44.90;;
74538;SDS011;66042;51.090;-115.340;2023-07-13T14:31:48;76.60;;;43.50;;
74538;SDS011;66042;51.090;-115.340;2023-07-13T14:34:15;79.10;;;44.70;;
74538;SDS011;66042;51.090;-115.340;2023-07-13T14:36:47;80.20;;;45.20;;
74538;SDS011;66042;51.090;-115.340;2023-07-13T14:39:24;83.50;;;46.90;;
74538;SDS011;66042;51.090;-115.340;2023-07-13T14:41:53;83.60;;;46.90;;
74538;SDS011;66042;51.090;-115.340;2023-07-13T14:44:25;78.00;;;46.20;;
74538;SDS011;66042;51.090;-115.340;2023-07-13T14:46:56;88.50;;;48.00;;
74538;SDS011;66042;51.090;-115.340;2023-07-13T14:49:39;82.90;;;48.00;;
74538;SDS011;66042;51.090;-115.340;2023-07-13T14:54:43;82.10;;;46.60;;